sensor_id;sensor_type;location;lat;lon;timestamp;P1;P2;P0
14880;PMS7003;7533;51.278;12.588;2023-06-10T00:01:44;5.50;5.50;2.75
14880;PMS7003;7533;51.278;12.588;2023-06-10T00:06:48;4.00;4.00;2.00
14880;PMS7003;7533;51.278;12.588;2023-06-10T00:11:51;4.50;4.50;3.00
14880;PMS7003;7533;51.278;12.588;2023-06-10T00:16:56;5.00;4.25;3.00
14880;PMS7003;7533;51.278;12.588;2023-06-10T00:21:59;4.00;3.00;2.00
14880;PMS7003;7533;51.278;12.588;2023-06-10T00:27:01;4.75;4.75;3.00
14880;PMS7003;7533;51.278;12.588;2023-06-10T00:32:06;5.00;5.00;3.50
14880;PMS7003;7533;51.278;12.588;2023-06-10T00:37:10;5.25;4.25;3.00
14880;PMS7003;7533;51.278;12.588;2023-06-10T00:42:13;3.75;3.75;2.00
14880;PMS7003;7533;51.278;12.588;2023-06-10T00:47:17;6.75;6.00;2.75
14880;PMS7003;7533;51.278;12.588;2023-06-10T00:52:21;6.00;5.00;2.25
14880;PMS7003;7533;51.278;12.588;2023-06-10T00:57:25;4.50;4.50;2.50
14880;PMS7003;7533;51.278;12.588;2023-06-10T01:02:29;4.00;4.00;2.00
14880;PMS7003;7533;51.278;12.588;2023-06-10T01:07:34;4.00;4.00;2.00
14880;PMS7003;7533;51.278;12.588;2023-06-10T01:12:43;4.00;4.00;2.00
14880;PMS7003;7533;51.278;12.588;2023-06-10T01:17:57;4.50;4.00;2.75
14880;PMS7003;7533;51.278;12.588;2023-06-10T01:23:02;3.75;3.75;2.00
14880;PMS7003;7533;51.278;12.588;2023-06-10T01:28:07;3.25;3.25;2.00
14880;PMS7003;7533;51.278;12.588;2023-06-10T01:33:15;4.75;3.75;1.75
14880;PMS7003;7533;51.278;12.588;2023-06-10T01:38:25;4.50;4.50;2.25
14880;PMS7003;7533;51.278;12.588;2023-06-10T01:43:32;7.25;6.25;2.75
14880;PMS7003;7533;51.278;12.588;2023-06-10T01:48:36;4.00;3.75;2.00
14880;PMS7003;7533;51.278;12.588;2023-06-10T01:53:41;3.25;3.25;1.50
14880;PMS7003;7533;51.278;12.588;2023-06-10T01:58:44;4.75;3.50;2.00
14880;PMS7003;7533;51.278;12.588;2023-06-10T02:03:46;4.00;3.50;1.50
14880;PMS7003;7533;51.278;12.588;2023-06-10T02:08:51;2.00;2.00;1.00
14880;PMS7003;7533;51.278;12.588;2023-06-10T02:13:55;3.00;3.00;1.25
14880;PMS7003;7533;51.278;12.588;2023-06-10T02:18:57;4.75;3.00;2.00
14880;PMS7003;7533;51.278;12.588;2023-06-10T02:24:03;2.75;2.75;1.50
14880;PMS7003;7533;51.278;12.588;2023-06-10T02:29:08;5.25;4.00;2.00
14880;PMS7003;7533;51.278;12.588;2023-06-10T02:34:13;2.00;2.00;1.00
14880;PMS7003;7533;51.278;12.588;2023-06-10T02:39:18;4.00;4.00;1.00
14880;PMS7003;7533;51.278;12.588;2023-06-10T02:44:21;4.00;3.00;2.00
14880;PMS7003;7533;51.278;12.588;2023-06-10T02:49:24;4.75;3.25;1.00
14880;PMS7003;7533;51.278;12.588;2023-06-10T02:54:31;4.50;3.00;1.75
14880;PMS7003;7533;51.278;12.588;2023-06-10T02:59:34;2.75;2.75;1.00
14880;PMS7003;7533;51.278;12.588;2023-06-10T03:04:37;2.00;2.00;1.00
14880;PMS7003;7533;51.278;12.588;2023-06-10T03:09:47;2.50;2.50;1.00
14880;PMS7003;7533;51.278;12.588;2023-06-10T03:14:51;4.00;2.25;1.00
14880;PMS7003;7533;51.278;12.588;2023-06-10T03:19:55;3.00;3.00;1.00
14880;PMS7003;7533;51.278;12.588;2023-06-10T03:24:59;1.25;1.25;0.75
14880;PMS7003;7533;51.278;12.588;2023-06-10T03:30:03;4.25;4.00;1.00
14880;PMS7003;7533;51.278;12.588;2023-06-10T03:35:07;4.25;3.25;1.50
14880;PMS7003;7533;51.278;12.588;2023-06-10T03:40:13;2.00;2.00;1.00
14880;PMS7003;7533;51.278;12.588;2023-06-10T03:45:19;3.00;3.00;1.00
14880;PMS7003;7533;51.278;12.588;2023-06-10T03:50:22;2.00;2.00;1.00
14880;PMS7003;7533;51.278;12.588;2023-06-10T03:55:27;2.00;2.00;1.00
14880;PMS7003;7533;51.278;12.588;2023-06-10T04:00:32;6.50;3.00;1.00
14880;PMS7003;7533;51.278;12.588;2023-06-10T04:05:43;4.00;3.00;1.00
14880;PMS7003;7533;51.278;12.588;2023-06-10T04:10:47;2.00;2.00;1.25
14880;PMS7003;7533;51.278;12.588;2023-06-10T04:15:50;2.25;2.25;1.50
14880;PMS7003;7533;51.278;12.588;2023-06-10T04:20:54;3.50;3.50;2.00
14880;PMS7003;7533;51.278;12.588;2023-06-10T04:26:00;2.50;2.00;1.00
14880;PMS7003;7533;51.278;12.588;2023-06-10T04:31:03;2.75;2.00;0.50
14880;PMS7003;7533;51.278;12.588;2023-06-10T04:36:06;2.00;2.00;1.00
14880;PMS7003;7533;51.278;12.588;2023-06-10T04:41:12;2.25;2.25;1.00
14880;PMS7003;7533;51.278;12.588;2023-06-10T04:46:15;4.00;4.00;2.00
14880;PMS7003;7533;51.278;12.588;2023-06-10T04:51:18;3.50;3.50;2.00
14880;PMS7003;7533;51.278;12.588;2023-06-10T04:56:22;3.75;3.75;2.00
14880;PMS7003;7533;51.278;12.588;2023-06-10T05:01:25;4.00;3.50;2.00
14880;PMS7003;7533;51.278;12.588;2023-06-10T05:06:29;3.75;2.75;1.00
14880;PMS7003;7533;51.278;12.588;2023-06-10T05:11:33;2.75;2.75;2.00
14880;PMS7003;7533;51.278;12.588;2023-06-10T05:16:36;3.50;3.50;1.50
14880;PMS7003;7533;51.278;12.588;2023-06-10T05:21:39;3.50;3.25;2.00
14880;PMS7003;7533;51.278;12.588;2023-06-10T05:26:44;4.75;3.75;2.00
14880;PMS7003;7533;51.278;12.588;2023-06-10T05:31:47;2.75;2.75;2.00
14880;PMS7003;7533;51.278;12.588;2023-06-10T05:36:49;3.00;3.00;1.50
14880;PMS7003;7533;51.278;12.588;2023-06-10T05:41:54;4.00;3.50;1.50
14880;PMS7003;7533;51.278;12.588;2023-06-10T05:46:57;5.00;5.00;2.00
14880;PMS7003;7533;51.278;12.588;2023-06-10T05:51:59;4.75;4.00;2.00
14880;PMS7003;7533;51.278;12.588;2023-06-10T05:57:04;5.25;5.00;2.00
14880;PMS7003;7533;51.278;12.588;2023-06-10T06:02:07;5.25;5.25;3.00
14880;PMS7003;7533;51.278;12.588;2023-06-10T06:07:10;5.00;5.00;3.00
14880;PMS7003;7533;51.278;12.588;2023-06-10T06:12:15;4.00;4.00;2.00
14880;PMS7003;7533;51.278;12.588;2023-06-10T06:17:18;3.25;3.25;2.00
14880;PMS7003;7533;51.278;12.588;2023-06-10T06:22:21;4.00;2.50;1.00
14880;PMS7003;7533;51.278;12.588;2023-06-10T06:27:25;3.00;3.00;2.00
14880;PMS7003;7533;51.278;12.588;2023-06-10T06:32:28;5.00;5.00;3.00
14880;PMS7003;7533;51.278;12.588;2023-06-10T06:37:31;5.75;4.75;2.00
14880;PMS7003;7533;51.278;12.588;2023-06-10T06:42:58;3.75;3.75;2.50
14880;PMS7003;7533;51.278;12.588;2023-06-10T06:48:24;4.50;4.00;2.25
14880;PMS7003;7533;51.278;12.588;2023-06-10T06:53:27;5.75;5.00;3.00
14880;PMS7003;7533;51.278;12.588;2023-06-10T06:58:35;5.25;5.25;2.50
14880;PMS7003;7533;51.278;12.588;2023-06-10T07:03:38;9.75;7.00;5.00
14880;PMS7003;7533;51.278;12.588;2023-06-10T07:08:41;10.00;8.50;5.00
14880;PMS7003;7533;51.278;12.588;2023-06-10T07:13:45;13.25;13.25;9.75
14880;PMS7003;7533;51.278;12.588;2023-06-10T07:18:48;10.00;9.00;6.00
14880;PMS7003;7533;51.278;12.588;2023-06-10T07:23:51;12.00;11.25;8.50
14880;PMS7003;7533;51.278;12.588;2023-06-10T07:28:56;13.00;11.00;7.50
14880;PMS7003;7533;51.278;12.588;2023-06-10T07:33:59;10.50;10.50;6.00
14880;PMS7003;7533;51.278;12.588;2023-06-10T07:39:02;16.00;11.50;7.50
14880;PMS7003;7533;51.278;12.588;2023-06-10T07:44:06;12.25;11.75;7.00
14880;PMS7003;7533;51.278;12.588;2023-06-10T07:49:09;12.00;11.75;7.25
14880;PMS7003;7533;51.278;12.588;2023-06-10T07:54:12;9.25;9.25;6.25
14880;PMS7003;7533;51.278;12.588;2023-06-10T07:59:19;12.25;12.25;7.00
14880;PMS7003;7533;51.278;12.588;2023-06-10T08:04:22;12.00;10.25;6.50
14880;PMS7003;7533;51.278;12.588;2023-06-10T08:09:25;15.00;12.00;7.00
14880;PMS7003;7533;51.278;12.588;2023-06-10T08:14:29;11.25;10.00;7.25
14880;PMS7003;7533;51.278;12.588;2023-06-10T08:19:32;16.00;11.75;7.50
14880;PMS7003;7533;51.278;12.588;2023-06-10T08:24:35;13.25;13.00;7.75
14880;PMS7003;7533;51.278;12.588;2023-06-10T08:29:40;11.50;11.25;7.00
14880;PMS7003;7533;51.278;12.588;2023-06-10T08:34:43;11.00;9.00;7.00
14880;PMS7003;7533;51.278;12.588;2023-06-10T08:39:46;12.75;12.75;8.25
14880;PMS7003;7533;51.278;12.588;2023-06-10T08:44:50;12.00;11.00;7.25
14880;PMS7003;7533;51.278;12.588;2023-06-10T08:49:56;12.50;10.25;7.00
14880;PMS7003;7533;51.278;12.588;2023-06-10T08:55:09;10.50;10.50;7.50
14880;PMS7003;7533;51.278;12.588;2023-06-10T09:00:16;10.25;10.25;7.00
14880;PMS7003;7533;51.278;12.588;2023-06-10T09:05:19;12.25;11.75;7.00
14880;PMS7003;7533;51.278;12.588;2023-06-10T09:10:23;12.50;11.75;8.25
14880;PMS7003;7533;51.278;12.588;2023-06-10T09:15:27;12.75;12.00;6.00
14880;PMS7003;7533;51.278;12.588;2023-06-10T09:20:30;14.50;12.00;8.25
14880;PMS7003;7533;51.278;12.588;2023-06-10T09:25:34;13.75;13.25;7.75
14880;PMS7003;7533;51.278;12.588;2023-06-10T09:30:40;15.00;13.50;7.25
14880;PMS7003;7533;51.278;12.588;2023-06-10T09:35:46;13.25;11.25;7.75
14880;PMS7003;7533;51.278;12.588;2023-06-10T09:40:50;15.75;13.25;7.75
14880;PMS7003;7533;51.278;12.588;2023-06-10T09:45:56;13.00;12.50;7.50
14880;PMS7003;7533;51.278;12.588;2023-06-10T09:50:59;15.50;14.75;9.25
14880;PMS7003;7533;51.278;12.588;2023-06-10T09:56:02;14.40;13.20;8.80
14880;PMS7003;7533;51.278;12.588;2023-06-10T10:01:10;13.00;12.00;7.75
14880;PMS7003;7533;51.278;12.588;2023-06-10T10:06:15;14.25;14.25;8.75
14880;PMS7003;7533;51.278;12.588;2023-06-10T10:11:20;15.50;13.75;8.75
14880;PMS7003;7533;51.278;12.588;2023-06-10T10:16:27;15.50;11.25;7.75
14880;PMS7003;7533;51.278;12.588;2023-06-10T10:21:35;13.00;13.00;7.50
14880;PMS7003;7533;51.278;12.588;2023-06-10T10:26:42;18.80;12.40;8.20
14880;PMS7003;7533;51.278;12.588;2023-06-10T10:31:50;12.50;12.50;6.75
14880;PMS7003;7533;51.278;12.588;2023-06-10T10:36:55;14.75;13.25;8.00
14880;PMS7003;7533;51.278;12.588;2023-06-10T10:41:58;13.20;13.20;8.00
14880;PMS7003;7533;51.278;12.588;2023-06-10T10:47:03;12.25;11.75;7.00
14880;PMS7003;7533;51.278;12.588;2023-06-10T10:52:11;11.00;9.00;6.50
14880;PMS7003;7533;51.278;12.588;2023-06-10T10:57:15;13.25;13.25;8.25
14880;PMS7003;7533;51.278;12.588;2023-06-10T11:02:32;11.75;11.25;7.50
14880;PMS7003;7533;51.278;12.588;2023-06-10T11:07:37;11.50;11.00;7.75
14880;PMS7003;7533;51.278;12.588;2023-06-10T11:12:50;12.25;11.50;7.00
14880;PMS7003;7533;51.278;12.588;2023-06-10T11:18:07;14.75;12.25;8.00
14880;PMS7003;7533;51.278;12.588;2023-06-10T11:23:34;14.25;12.00;7.25
14880;PMS7003;7533;51.278;12.588;2023-06-10T11:28:41;12.25;12.25;5.75
14880;PMS7003;7533;51.278;12.588;2023-06-10T11:34:04;13.25;12.75;8.00
14880;PMS7003;7533;51.278;12.588;2023-06-10T11:39:08;15.50;10.50;6.50
14880;PMS7003;7533;51.278;12.588;2023-06-10T11:44:12;12.50;12.00;7.00
14880;PMS7003;7533;51.278;12.588;2023-06-10T11:49:22;10.25;9.50;6.00
14880;PMS7003;7533;51.278;12.588;2023-06-10T11:54:25;10.25;9.25;5.50
14880;PMS7003;7533;51.278;12.588;2023-06-10T11:59:28;12.75;9.75;5.75
14880;PMS7003;7533;51.278;12.588;2023-06-10T12:04:33;11.75;10.50;6.75
14880;PMS7003;7533;51.278;12.588;2023-06-10T12:09:36;10.00;9.00;5.00
14880;PMS7003;7533;51.278;12.588;2023-06-10T12:14:51;10.50;10.50;6.50
14880;PMS7003;7533;51.278;12.588;2023-06-10T12:19:58;9.00;9.00;6.50
14880;PMS7003;7533;51.278;12.588;2023-06-10T12:25:03;10.00;8.75;5.00
14880;PMS7003;7533;51.278;12.588;2023-06-10T12:30:08;9.25;8.75;6.50
14880;PMS7003;7533;51.278;12.588;2023-06-10T12:35:13;10.00;10.00;5.75
14880;PMS7003;7533;51.278;12.588;2023-06-10T12:40:25;8.75;8.00;5.00
14880;PMS7003;7533;51.278;12.588;2023-06-10T12:45:28;11.00;10.75;6.00
14880;PMS7003;7533;51.278;12.588;2023-06-10T12:50:34;7.50;7.50;4.00
14880;PMS7003;7533;51.278;12.588;2023-06-10T12:55:38;9.50;8.75;5.75
14880;PMS7003;7533;51.278;12.588;2023-06-10T13:00:42;12.00;9.25;6.00
14880;PMS7003;7533;51.278;12.588;2023-06-10T13:05:46;11.00;8.50;5.00
14880;PMS7003;7533;51.278;12.588;2023-06-10T13:10:50;8.50;8.50;4.25
14880;PMS7003;7533;51.278;12.588;2023-06-10T13:15:53;11.25;9.50;6.00
14880;PMS7003;7533;51.278;12.588;2023-06-10T13:20:57;8.50;7.50;4.50
14880;PMS7003;7533;51.278;12.588;2023-06-10T13:26:00;10.00;9.75;5.50
14880;PMS7003;7533;51.278;12.588;2023-06-10T13:31:04;11.75;9.25;5.50
14880;PMS7003;7533;51.278;12.588;2023-06-10T13:36:10;7.75;7.50;4.00
14880;PMS7003;7533;51.278;12.588;2023-06-10T13:41:13;8.00;8.00;4.25
14880;PMS7003;7533;51.278;12.588;2023-06-10T13:46:16;8.75;6.50;4.00
14880;PMS7003;7533;51.278;12.588;2023-06-10T13:51:21;9.00;7.75;5.25
14880;PMS7003;7533;51.278;12.588;2023-06-10T13:56:23;12.25;8.75;4.25
14880;PMS7003;7533;51.278;12.588;2023-06-10T14:01:26;10.50;7.25;4.00
14880;PMS7003;7533;51.278;12.588;2023-06-10T14:06:31;6.75;5.75;3.00
14880;PMS7003;7533;51.278;12.588;2023-06-10T14:11:34;8.00;7.50;4.00
14880;PMS7003;7533;51.278;12.588;2023-06-10T14:16:37;11.75;8.00;4.75
14880;PMS7003;7533;51.278;12.588;2023-06-10T14:21:45;6.50;6.25;4.00
14880;PMS7003;7533;51.278;12.588;2023-06-10T14:26:48;6.50;6.50;4.00
14880;PMS7003;7533;51.278;12.588;2023-06-10T14:31:51;6.00;6.00;4.00
14880;PMS7003;7533;51.278;12.588;2023-06-10T14:36:55;9.75;8.75;4.00
14880;PMS7003;7533;51.278;12.588;2023-06-10T14:41:58;8.75;8.00;4.00
14880;PMS7003;7533;51.278;12.588;2023-06-10T14:47:01;6.75;6.75;4.00
14880;PMS7003;7533;51.278;12.588;2023-06-10T14:52:06;7.75;6.50;4.75
14880;PMS7003;7533;51.278;12.588;2023-06-10T14:57:09;7.25;7.25;4.75
14880;PMS7003;7533;51.278;12.588;2023-06-10T15:02:12;6.50;6.00;3.00
14880;PMS7003;7533;51.278;12.588;2023-06-10T15:07:16;6.25;5.00;3.50
14880;PMS7003;7533;51.278;12.588;2023-06-10T15:12:19;6.75;6.25;3.50
14880;PMS7003;7533;51.278;12.588;2023-06-10T15:17:22;7.00;7.00;3.00
14880;PMS7003;7533;51.278;12.588;2023-06-10T15:22:26;6.75;6.00;4.25
14880;PMS7003;7533;51.278;12.588;2023-06-10T15:27:29;6.00;5.75;3.00
14880;PMS7003;7533;51.278;12.588;2023-06-10T15:32:32;8.75;7.25;4.00
14880;PMS7003;7533;51.278;12.588;2023-06-10T15:37:37;6.00;5.50;3.00
14880;PMS7003;7533;51.278;12.588;2023-06-10T15:42:40;7.25;6.00;4.00
14880;PMS7003;7533;51.278;12.588;2023-06-10T15:47:43;5.25;5.25;3.00
14880;PMS7003;7533;51.278;12.588;2023-06-10T15:52:47;8.50;4.75;3.00
14880;PMS7003;7533;51.278;12.588;2023-06-10T15:57:50;4.00;4.00;2.50
14880;PMS7003;7533;51.278;12.588;2023-06-10T16:02:53;5.25;5.00;3.00
14880;PMS7003;7533;51.278;12.588;2023-06-10T16:07:58;8.75;6.00;4.00
14880;PMS7003;7533;51.278;12.588;2023-06-10T16:13:03;7.50;5.75;4.00
14880;PMS7003;7533;51.278;12.588;2023-06-10T16:18:06;6.00;3.50;2.00
14880;PMS7003;7533;51.278;12.588;2023-06-10T16:23:11;5.75;3.25;2.00
14880;PMS7003;7533;51.278;12.588;2023-06-10T16:28:13;4.50;3.75;3.00
14880;PMS7003;7533;51.278;12.588;2023-06-10T16:33:16;6.25;5.50;3.25
14880;PMS7003;7533;51.278;12.588;2023-06-10T16:38:21;5.00;5.00;3.25
14880;PMS7003;7533;51.278;12.588;2023-06-10T16:43:24;6.00;4.25;3.00
14880;PMS7003;7533;51.278;12.588;2023-06-10T16:48:28;7.00;4.50;3.00
14880;PMS7003;7533;51.278;12.588;2023-06-10T16:53:33;5.75;5.00;3.25
14880;PMS7003;7533;51.278;12.588;2023-06-10T16:58:37;6.00;6.00;4.00
14880;PMS7003;7533;51.278;12.588;2023-06-10T17:03:40;6.25;6.00;3.00
14880;PMS7003;7533;51.278;12.588;2023-06-10T17:08:45;6.25;6.25;3.50
14880;PMS7003;7533;51.278;12.588;2023-06-10T17:13:48;5.25;5.25;3.25
14880;PMS7003;7533;51.278;12.588;2023-06-10T17:18:51;6.50;5.00;3.00
14880;PMS7003;7533;51.278;12.588;2023-06-10T17:23:56;7.75;7.00;3.75
14880;PMS7003;7533;51.278;12.588;2023-06-10T17:28:59;7.00;5.25;3.00
14880;PMS7003;7533;51.278;12.588;2023-06-10T17:34:03;6.25;6.25;4.00
14880;PMS7003;7533;51.278;12.588;2023-06-10T17:39:07;7.25;6.25;4.25
14880;PMS7003;7533;51.278;12.588;2023-06-10T17:44:10;7.25;5.50;2.50
14880;PMS7003;7533;51.278;12.588;2023-06-10T17:49:13;9.00;6.50;3.00
14880;PMS7003;7533;51.278;12.588;2023-06-10T17:54:17;7.00;6.00;4.50
14880;PMS7003;7533;51.278;12.588;2023-06-10T17:59:21;5.75;5.75;3.50
14880;PMS7003;7533;51.278;12.588;2023-06-10T18:04:24;5.25;5.25;3.75
14880;PMS7003;7533;51.278;12.588;2023-06-10T18:09:29;7.25;4.75;3.00
14880;PMS7003;7533;51.278;12.588;2023-06-10T18:14:32;5.25;4.50;3.50
14880;PMS7003;7533;51.278;12.588;2023-06-10T18:19:35;9.50;6.25;4.00
14880;PMS7003;7533;51.278;12.588;2023-06-10T18:24:39;5.00;5.00;2.75
14880;PMS7003;7533;51.278;12.588;2023-06-10T18:29:42;6.00;6.00;3.00
14880;PMS7003;7533;51.278;12.588;2023-06-10T18:34:45;8.75;6.75;4.00
14880;PMS7003;7533;51.278;12.588;2023-06-10T18:39:52;5.75;5.75;3.00
14880;PMS7003;7533;51.278;12.588;2023-06-10T18:44:55;6.50;6.00;4.00
14880;PMS7003;7533;51.278;12.588;2023-06-10T18:49:57;5.75;4.50;3.00
14880;PMS7003;7533;51.278;12.588;2023-06-10T18:55:02;5.00;4.50;2.50
14880;PMS7003;7533;51.278;12.588;2023-06-10T19:00:06;8.00;6.00;3.00
14880;PMS7003;7533;51.278;12.588;2023-06-10T19:05:09;6.00;5.00;3.50
14880;PMS7003;7533;51.278;12.588;2023-06-10T19:10:16;7.00;6.00;3.00
14880;PMS7003;7533;51.278;12.588;2023-06-10T19:15:19;6.00;5.00;3.00
14880;PMS7003;7533;51.278;12.588;2023-06-10T19:20:22;6.00;5.75;3.50
14880;PMS7003;7533;51.278;12.588;2023-06-10T19:25:26;5.00;4.25;3.00
14880;PMS7003;7533;51.278;12.588;2023-06-10T19:30:29;5.25;4.50;2.75
14880;PMS7003;7533;51.278;12.588;2023-06-10T19:35:32;4.50;4.50;2.50
14880;PMS7003;7533;51.278;12.588;2023-06-10T19:40:37;6.25;6.25;4.00
14880;PMS7003;7533;51.278;12.588;2023-06-10T19:45:40;7.00;5.50;3.25
14880;PMS7003;7533;51.278;12.588;2023-06-10T19:50:43;6.75;6.00;4.00
14880;PMS7003;7533;51.278;12.588;2023-06-10T19:55:47;5.75;5.50;4.00
14880;PMS7003;7533;51.278;12.588;2023-06-10T20:01:02;6.00;5.75;3.00
14880;PMS7003;7533;51.278;12.588;2023-06-10T20:06:10;6.50;6.50;3.75
14880;PMS7003;7533;51.278;12.588;2023-06-10T20:11:15;7.00;6.50;3.75
14880;PMS7003;7533;51.278;12.588;2023-06-10T20:16:18;9.25;8.00;4.00
14880;PMS7003;7533;51.278;12.588;2023-06-10T20:21:21;8.00;5.00;3.00
14880;PMS7003;7533;51.278;12.588;2023-06-10T20:26:26;7.25;7.25;5.00
14880;PMS7003;7533;51.278;12.588;2023-06-10T20:31:29;9.75;8.00;5.25
14880;PMS7003;7533;51.278;12.588;2023-06-10T20:36:32;8.20;7.00;4.40
14880;PMS7003;7533;51.278;12.588;2023-06-10T20:41:36;11.80;10.80;6.00
14880;PMS7003;7533;51.278;12.588;2023-06-10T20:46:39;14.40;12.00;7.60
14880;PMS7003;7533;51.278;12.588;2023-06-10T20:51:42;11.00;10.20;6.00
14880;PMS7003;7533;51.278;12.588;2023-06-10T20:56:47;9.00;8.40;4.60
14880;PMS7003;7533;51.278;12.588;2023-06-10T21:01:49;12.75;10.75;5.25
14880;PMS7003;7533;51.278;12.588;2023-06-10T21:06:53;13.00;12.40;8.00
14880;PMS7003;7533;51.278;12.588;2023-06-10T21:11:57;12.00;11.80;6.40
14880;PMS7003;7533;51.278;12.588;2023-06-10T21:17:00;11.40;10.00;5.80
14880;PMS7003;7533;51.278;12.588;2023-06-10T21:22:03;12.60;10.40;7.00
14880;PMS7003;7533;51.278;12.588;2023-06-10T21:27:07;11.60;9.40;6.00
14880;PMS7003;7533;51.278;12.588;2023-06-10T21:32:12;13.00;11.20;7.40
14880;PMS7003;7533;51.278;12.588;2023-06-10T21:37:15;14.80;12.80;8.20
14880;PMS7003;7533;51.278;12.588;2023-06-10T21:42:19;12.20;10.80;7.60
14880;PMS7003;7533;51.278;12.588;2023-06-10T21:47:22;13.00;10.20;6.80
14880;PMS7003;7533;51.278;12.588;2023-06-10T21:52:25;11.20;10.40;6.80
14880;PMS7003;7533;51.278;12.588;2023-06-10T21:57:30;9.80;9.80;6.00
14880;PMS7003;7533;51.278;12.588;2023-06-10T22:02:32;8.40;8.20;6.20
14880;PMS7003;7533;51.278;12.588;2023-06-10T22:07:35;10.60;9.20;6.00
14880;PMS7003;7533;51.278;12.588;2023-06-10T22:12:40;11.00;10.00;5.75
14880;PMS7003;7533;51.278;12.588;2023-06-10T22:17:43;10.60;9.60;6.20
14880;PMS7003;7533;51.278;12.588;2023-06-10T22:22:46;9.80;9.40;6.60
14880;PMS7003;7533;51.278;12.588;2023-06-10T22:27:51;11.80;9.80;7.00
14880;PMS7003;7533;51.278;12.588;2023-06-10T22:32:53;10.80;9.80;6.00
14880;PMS7003;7533;51.278;12.588;2023-06-10T22:37:56;10.25;7.25;5.25
14880;PMS7003;7533;51.278;12.588;2023-06-10T22:43:00;10.00;9.00;5.60
14880;PMS7003;7533;51.278;12.588;2023-06-10T22:48:04;9.20;8.60;6.20
14880;PMS7003;7533;51.278;12.588;2023-06-10T22:53:07;8.00;7.75;4.50
14880;PMS7003;7533;51.278;12.588;2023-06-10T22:58:12;12.20;9.00;6.00
14880;PMS7003;7533;51.278;12.588;2023-06-10T23:03:15;9.60;9.20;5.40
14880;PMS7003;7533;51.278;12.588;2023-06-10T23:08:18;10.00;8.60;5.00
14880;PMS7003;7533;51.278;12.588;2023-06-10T23:13:22;10.50;9.25;5.50
14880;PMS7003;7533;51.278;12.588;2023-06-10T23:18:25;11.00;10.80;5.80
14880;PMS7003;7533;51.278;12.588;2023-06-10T23:23:28;9.00;7.50;4.00
14880;PMS7003;7533;51.278;12.588;2023-06-10T23:28:36;8.25;8.00;5.00
14880;PMS7003;7533;51.278;12.588;2023-06-10T23:33:39;9.00;8.00;5.50
14880;PMS7003;7533;51.278;12.588;2023-06-10T23:38:42;6.00;5.50;3.50
14880;PMS7003;7533;51.278;12.588;2023-06-10T23:43:47;9.75;8.00;5.50
14880;PMS7003;7533;51.278;12.588;2023-06-10T23:48:50;9.50;8.50;5.25
14880;PMS7003;7533;51.278;12.588;2023-06-10T23:53:53;10.25;9.00;6.25
14880;PMS7003;7533;51.278;12.588;2023-06-10T23:58:57;11.75;10.25;5.00
